createdAt,value
2023-04-18T00:01:04.567Z,15.00
2023-04-18T00:03:32.592Z,15.00
2023-04-18T00:06:00.732Z,15.00
2023-04-18T00:08:29.937Z,15.00
2023-04-18T00:10:57.945Z,15.00
2023-04-18T00:13:28.328Z,15.00
2023-04-18T00:15:56.759Z,15.00
2023-04-18T00:18:26.507Z,15.00
2023-04-18T00:20:54.593Z,15.00
2023-04-18T00:23:22.471Z,15.00
2023-04-18T00:25:51.855Z,15.00
2023-04-18T00:28:19.746Z,15.00
2023-04-18T00:30:48.963Z,15.00
2023-04-18T00:33:17.429Z,15.00
2023-04-18T00:35:45.535Z,15.00
2023-04-18T00:38:14.865Z,15.00
2023-04-18T00:40:42.836Z,15.00
2023-04-18T00:43:15.147Z,14.90
2023-04-18T00:45:43.396Z,14.90
2023-04-18T00:48:12.407Z,15.00
2023-04-18T00:50:41.683Z,14.90
2023-04-18T00:53:11.773Z,14.90
2023-04-18T00:55:40.607Z,14.90
2023-04-18T00:58:10.187Z,15.00
2023-04-18T01:00:39.438Z,14.90
2023-04-18T01:03:08.461Z,15.00
2023-04-18T01:05:37.135Z,15.00
2023-04-18T01:08:05.593Z,15.00
2023-04-18T01:10:37.241Z,14.90
2023-04-18T01:13:13.614Z,14.90
2023-04-18T01:15:44.157Z,14.90
2023-04-18T01:18:13.663Z,14.90
2023-04-18T01:20:45.797Z,14.90
2023-04-18T01:23:13.974Z,14.90
2023-04-18T01:25:43.946Z,14.90
2023-04-18T01:28:14.487Z,14.90
2023-04-18T01:30:42.694Z,14.90
2023-04-18T01:33:10.719Z,14.90
2023-04-18T01:35:38.673Z,14.90
2023-04-18T01:38:06.527Z,14.90
2023-04-18T01:40:34.932Z,14.90
2023-04-18T01:43:04.081Z,14.90
2023-04-18T01:45:32.007Z,14.90
2023-04-18T01:47:59.892Z,14.90
2023-04-18T01:50:28.125Z,14.90
2023-04-18T01:52:56.021Z,14.90
2023-04-18T01:55:23.900Z,14.90
2023-04-18T01:57:51.788Z,14.90
2023-04-18T02:00:23.235Z,14.90
2023-04-18T02:02:51.360Z,15.00
2023-04-18T02:05:22.144Z,14.90
2023-04-18T02:07:50.404Z,14.90
2023-04-18T02:10:19.052Z,15.00
2023-04-18T02:12:47.111Z,15.00
2023-04-18T02:15:15.019Z,15.00
2023-04-18T02:17:44.292Z,15.00
2023-04-18T02:20:13.242Z,15.00
2023-04-18T02:22:41.087Z,15.00
2023-04-18T02:25:10.780Z,15.00
2023-04-18T02:27:38.674Z,15.00
2023-04-18T02:30:08.277Z,15.00
2023-04-18T02:32:36.225Z,15.00
2023-04-18T02:35:06.479Z,14.90
2023-04-18T02:37:34.359Z,14.90
2023-04-18T02:40:02.225Z,14.90
2023-04-18T02:42:33.052Z,14.90
2023-04-18T02:45:02.309Z,14.90
2023-04-18T02:47:35.285Z,14.90
2023-04-18T02:50:11.684Z,14.90
2023-04-18T02:52:39.935Z,14.90
2023-04-18T02:55:10.046Z,14.90
2023-04-18T02:57:41.466Z,14.90
2023-04-18T03:00:28.426Z,14.90
2023-04-18T03:03:22.348Z,14.90
2023-04-18T03:06:12.362Z,14.90
2023-04-18T03:08:41.055Z,14.90
2023-04-18T03:11:09.937Z,14.80
2023-04-18T03:13:38.200Z,14.90
2023-04-18T03:16:07.226Z,14.90
2023-04-18T03:18:35.608Z,14.90
2023-04-18T03:21:03.888Z,14.80
2023-04-18T03:23:34.902Z,14.80
2023-04-18T03:26:07.148Z,14.80
2023-04-18T03:28:36.705Z,14.90
2023-04-18T03:31:04.916Z,14.80
2023-04-18T03:33:35.072Z,14.80
2023-04-18T03:36:09.700Z,14.80
2023-04-18T03:38:40.653Z,14.80
2023-04-18T03:41:09.406Z,14.80
2023-04-18T03:43:39.002Z,14.80
2023-04-18T03:46:06.935Z,14.90
2023-04-18T03:48:37.103Z,14.80
2023-04-18T03:51:09.292Z,14.80
2023-04-18T03:53:39.458Z,14.80
2023-04-18T03:56:07.568Z,14.80
2023-04-18T03:58:52.946Z,14.80
2023-04-18T04:01:22.529Z,14.80
2023-04-18T04:03:53.651Z,14.80
2023-04-18T04:06:22.074Z,14.80
2023-04-18T04:08:51.300Z,14.80
2023-04-18T04:11:24.466Z,14.80
2023-04-18T04:13:52.480Z,14.80
2023-04-18T04:16:24.874Z,14.70
2023-04-18T04:18:54.196Z,14.80
2023-04-18T04:21:27.092Z,14.80
2023-04-18T04:23:56.290Z,14.80
2023-04-18T04:26:32.290Z,14.70
2023-04-18T04:29:06.003Z,14.70
2023-04-18T04:31:35.418Z,14.70
2023-04-18T04:34:04.886Z,14.70
2023-04-18T04:36:34.661Z,14.70
2023-04-18T04:39:05.924Z,14.70
2023-04-18T04:42:04.478Z,14.70
2023-04-18T04:44:41.537Z,14.70
2023-04-18T04:47:09.904Z,14.70
2023-04-18T04:49:39.920Z,14.70
2023-04-18T04:52:07.813Z,14.70
2023-04-18T04:54:37.072Z,14.70
2023-04-18T04:57:07.082Z,14.70
2023-04-18T04:59:35.440Z,14.60
2023-04-18T05:02:03.689Z,14.60
2023-04-18T05:04:31.618Z,14.60
2023-04-18T05:06:59.639Z,14.60
2023-04-18T05:09:27.623Z,14.60
2023-04-18T05:11:56.949Z,14.60
2023-04-18T05:14:25.156Z,14.60
2023-04-18T05:16:53.084Z,14.60
2023-04-18T05:19:20.983Z,14.60
2023-04-18T05:21:48.832Z,14.60
2023-04-18T05:24:16.894Z,14.60
2023-04-18T05:26:44.971Z,14.60
2023-04-18T05:29:14.148Z,14.60
2023-04-18T05:31:41.982Z,14.60
2023-04-18T05:34:09.862Z,14.60
2023-04-18T05:36:38.242Z,14.50
2023-04-18T05:39:06.169Z,14.50
2023-04-18T05:41:33.996Z,14.50
2023-04-18T05:44:05.236Z,14.50
2023-04-18T05:46:35.242Z,14.50
2023-04-18T05:49:03.604Z,14.50
2023-04-18T05:51:31.955Z,14.50
2023-04-18T05:53:59.779Z,14.50
2023-04-18T05:56:27.845Z,14.50
2023-04-18T05:58:55.866Z,14.40
2023-04-18T06:01:23.806Z,14.40
2023-04-18T06:03:53.108Z,14.40
2023-04-18T06:06:21.397Z,14.40
2023-04-18T06:08:49.256Z,14.40
2023-04-18T06:11:20.027Z,14.40
2023-04-18T06:13:48.183Z,14.40
2023-04-18T06:16:16.160Z,14.40
2023-04-18T06:18:44.161Z,14.40
2023-04-18T06:21:13.364Z,14.30
2023-04-18T06:23:41.252Z,14.40
2023-04-18T06:26:09.306Z,14.40
2023-04-18T06:28:37.370Z,14.40
2023-04-18T06:31:05.277Z,14.40
2023-04-18T06:33:34.108Z,14.40
2023-04-18T06:36:02.021Z,14.40
2023-04-18T06:38:31.252Z,14.40
2023-04-18T06:40:59.101Z,14.40
2023-04-18T06:43:26.945Z,14.40
2023-04-18T06:45:55.754Z,14.40
2023-04-18T06:48:23.835Z,14.40
2023-04-18T06:50:51.779Z,14.40
2023-04-18T06:53:19.624Z,14.30
2023-04-18T06:55:49.186Z,14.30
2023-04-18T06:58:17.768Z,14.30
2023-04-18T07:00:47.591Z,14.30
2023-04-18T07:03:15.772Z,14.30
2023-04-18T07:05:43.788Z,14.30
2023-04-18T07:08:11.632Z,14.30
2023-04-18T07:10:39.585Z,14.30
2023-04-18T07:13:08.873Z,14.20
2023-04-18T07:15:36.845Z,14.30
2023-04-18T07:18:05.255Z,14.20
2023-04-18T07:20:33.193Z,14.20
2023-04-18T07:23:01.042Z,14.20
2023-04-18T07:25:29.115Z,14.20
2023-04-18T07:27:56.956Z,14.20
2023-04-18T07:30:26.329Z,14.20
2023-04-18T07:32:54.344Z,14.20
2023-04-18T07:35:22.306Z,14.20
2023-04-18T07:37:50.263Z,14.20
2023-04-18T07:40:18.350Z,14.20
2023-04-18T07:42:46.235Z,14.20
2023-04-18T07:45:15.401Z,14.20
2023-04-18T07:47:44.744Z,14.20
2023-04-18T07:50:12.944Z,14.20
2023-04-18T07:52:40.829Z,14.20
2023-04-18T07:55:09.842Z,14.20
2023-04-18T07:57:37.655Z,14.20
2023-04-18T08:00:07.609Z,14.20
2023-04-18T08:02:41.681Z,14.30
2023-04-18T08:05:11.829Z,14.20
2023-04-18T08:07:39.969Z,14.30
2023-04-18T08:10:09.296Z,14.30
2023-04-18T08:12:37.236Z,14.30
2023-04-18T08:15:05.795Z,14.30
2023-04-18T08:17:33.718Z,14.30
2023-04-18T08:20:04.838Z,14.30
2023-04-18T08:22:34.631Z,14.20
2023-04-18T08:25:05.456Z,14.30
2023-04-18T08:27:33.984Z,14.30
2023-04-18T08:30:04.101Z,14.30
2023-04-18T08:32:32.895Z,14.30
2023-04-18T08:35:00.875Z,14.30
2023-04-18T08:37:30.128Z,14.30
2023-04-18T08:39:59.298Z,14.30
2023-04-18T08:42:28.102Z,14.30
2023-04-18T08:44:57.764Z,14.30
2023-04-18T08:47:25.812Z,14.30
2023-04-18T08:49:54.122Z,14.30
2023-04-18T08:52:23.954Z,14.30
2023-04-18T08:54:52.437Z,14.30
2023-04-18T08:57:26.681Z,14.30
2023-04-18T08:59:55.372Z,14.30
2023-04-18T09:02:35.296Z,14.40
2023-04-18T09:05:13.386Z,14.30
2023-04-18T09:07:42.280Z,14.40
2023-04-18T09:10:12.651Z,14.40
2023-04-18T09:12:50.299Z,14.30
2023-04-18T09:15:23.232Z,14.40
2023-04-18T09:17:54.054Z,14.40
2023-04-18T09:20:35.541Z,14.40
2023-04-18T09:23:05.555Z,14.40
2023-04-18T09:25:40.088Z,14.40
2023-04-18T09:28:26.866Z,14.40
2023-04-18T09:30:56.592Z,14.40
2023-04-18T09:33:29.368Z,14.40
2023-04-18T09:36:01.125Z,14.40
2023-04-18T09:38:41.437Z,14.40
2023-04-18T09:41:10.550Z,14.50
2023-04-18T09:43:40.057Z,14.40
2023-04-18T09:46:09.508Z,14.50
2023-04-18T09:48:37.790Z,14.50
2023-04-18T09:51:10.713Z,14.50
2023-04-18T09:53:41.019Z,14.50
2023-04-18T09:56:15.548Z,14.50
2023-04-18T09:58:48.244Z,14.60
2023-04-18T10:01:16.731Z,14.60
2023-04-18T10:03:48.804Z,14.60
2023-04-18T10:06:18.348Z,14.60
2023-04-18T10:08:48.802Z,14.60
2023-04-18T10:11:18.672Z,14.70
2023-04-18T10:13:51.562Z,14.70
2023-04-18T10:16:21.230Z,14.70
2023-04-18T10:18:51.038Z,14.70
2023-04-18T10:21:18.955Z,14.70
2023-04-18T10:23:48.911Z,14.70
2023-04-18T10:26:16.993Z,14.80
2023-04-18T10:28:56.482Z,14.70
2023-04-18T10:31:26.402Z,14.80
2023-04-18T10:36:28.585Z,14.80
2023-04-18T10:39:02.835Z,14.80
2023-04-18T10:41:32.532Z,14.80
2023-04-18T10:44:22.541Z,14.80
2023-04-18T10:47:21.965Z,14.80
2023-04-18T10:50:06.642Z,14.80
2023-04-18T10:52:35.084Z,14.80
2023-04-18T10:55:14.093Z,14.80
2023-04-18T10:57:44.448Z,14.80
2023-04-18T11:00:17.720Z,14.80
2023-04-18T11:02:55.933Z,14.80
2023-04-18T11:05:26.732Z,14.90
2023-04-18T11:07:56.058Z,14.90
2023-04-18T11:10:26.371Z,14.90
2023-04-18T11:12:55.737Z,14.90
2023-04-18T11:15:27.952Z,14.90
2023-04-18T11:17:59.454Z,14.90
2023-04-18T11:20:28.264Z,14.90
2023-04-18T11:22:58.305Z,14.90
2023-04-18T11:25:29.010Z,14.90
2023-04-18T11:28:01.267Z,14.90
2023-04-18T11:30:38.188Z,14.90
2023-04-18T11:33:08.373Z,15.00
2023-04-18T11:35:39.504Z,15.00
2023-04-18T11:38:07.993Z,15.00
2023-04-18T11:40:37.288Z,15.00
2023-04-18T11:43:08.017Z,15.00
2023-04-18T11:45:37.282Z,15.00
2023-04-18T11:48:06.113Z,15.00
2023-04-18T11:50:38.356Z,15.00
2023-04-18T11:53:06.229Z,15.00
2023-04-18T11:55:34.191Z,15.00
2023-04-18T11:58:03.244Z,15.00
2023-04-18T12:00:34.374Z,15.00
2023-04-18T12:03:06.011Z,15.10
2023-04-18T12:05:36.989Z,15.10
2023-04-18T12:08:11.278Z,15.10
2023-04-18T12:10:47.084Z,15.10
2023-04-18T12:13:15.501Z,15.10
2023-04-18T12:15:46.449Z,15.10
2023-04-18T12:18:19.683Z,15.10
2023-04-18T12:20:51.504Z,15.10
2023-04-18T12:23:35.396Z,15.00
2023-04-18T12:26:05.688Z,15.10
2023-04-18T12:28:35.009Z,15.10
2023-04-18T12:31:05.454Z,15.10
2023-04-18T12:33:36.586Z,15.10
2023-04-18T12:36:06.060Z,15.10
2023-04-18T12:38:34.039Z,15.10
2023-04-18T12:41:02.038Z,15.10
2023-04-18T12:43:30.040Z,15.10
2023-04-18T12:45:59.402Z,15.10
2023-04-18T12:48:27.355Z,15.10
2023-04-18T12:50:57.612Z,15.20
2023-04-18T12:53:25.571Z,15.20
2023-04-18T12:55:53.503Z,15.20
2023-04-18T12:58:21.509Z,15.20
2023-04-18T13:00:49.425Z,15.20
2023-04-18T13:03:17.534Z,15.20
2023-04-18T13:05:45.631Z,15.20
2023-04-18T13:08:17.543Z,15.20
2023-04-18T13:10:47.324Z,15.20
2023-04-18T13:13:15.446Z,15.20
2023-04-18T13:15:43.357Z,15.20
2023-04-18T13:18:11.277Z,15.20
2023-04-18T13:20:39.278Z,15.20
2023-04-18T13:23:07.118Z,15.20
2023-04-18T13:25:36.374Z,15.20
2023-04-18T13:28:04.260Z,15.20
2023-04-18T13:30:32.506Z,15.30
2023-04-18T13:33:00.474Z,15.30
2023-04-18T13:35:28.512Z,15.30
2023-04-18T13:37:56.474Z,15.30
2023-04-18T13:40:25.083Z,15.30
2023-04-18T13:42:54.272Z,15.30
2023-04-18T13:45:22.195Z,15.30
2023-04-18T13:47:50.102Z,15.30
2023-04-18T13:50:18.075Z,15.30
2023-04-18T13:52:48.010Z,15.30
2023-04-18T13:55:17.969Z,15.30
2023-04-18T13:57:45.877Z,15.30
2023-04-18T14:00:16.969Z,15.30
2023-04-18T14:02:45.103Z,15.40
2023-04-18T14:05:13.384Z,15.40
2023-04-18T14:07:41.375Z,15.40
2023-04-18T14:10:10.399Z,15.40
2023-04-18T14:12:38.508Z,15.40
2023-04-18T14:15:08.398Z,15.40
2023-04-18T14:17:37.747Z,15.40
2023-04-18T14:20:07.747Z,15.40
2023-04-18T14:22:35.710Z,15.40
2023-04-18T14:25:03.734Z,15.40
2023-04-18T14:27:32.839Z,15.40
2023-04-18T14:30:00.719Z,15.40
2023-04-18T14:32:28.685Z,15.40
2023-04-18T14:34:58.948Z,15.40
2023-04-18T14:37:26.803Z,15.40
2023-04-18T14:39:54.955Z,15.30
2023-04-18T14:42:22.823Z,15.40
2023-04-18T14:44:50.807Z,15.40
2023-04-18T14:47:18.677Z,15.40
2023-04-18T14:49:46.561Z,15.40
2023-04-18T14:52:15.819Z,15.40
2023-04-18T14:54:43.945Z,15.40
2023-04-18T14:57:12.831Z,15.40
2023-04-18T14:59:40.803Z,15.40
2023-04-18T15:02:08.844Z,15.40
2023-04-18T15:04:36.941Z,15.40
2023-04-18T15:07:04.976Z,15.40
2023-04-18T15:09:38.242Z,15.40
2023-04-18T15:12:07.622Z,15.40
2023-04-18T15:14:35.964Z,15.40
2023-04-18T15:17:04.496Z,15.40
2023-04-18T15:19:32.893Z,15.40
2023-04-18T15:22:00.865Z,15.40
2023-04-18T15:24:28.793Z,15.40
2023-04-18T15:26:58.718Z,15.40
2023-04-18T15:29:26.875Z,15.40
2023-04-18T15:31:54.779Z,15.40
2023-04-18T15:34:22.693Z,15.40
2023-04-18T15:36:50.872Z,15.40
2023-04-18T15:39:22.005Z,15.40
2023-04-18T15:41:54.423Z,15.40
2023-04-18T15:44:23.872Z,15.40
2023-04-18T15:46:51.882Z,15.40
2023-04-18T15:49:19.992Z,15.40
2023-04-18T15:51:47.878Z,15.50
2023-04-18T15:54:16.171Z,15.50
2023-04-18T15:56:44.782Z,15.50
2023-04-18T15:59:13.137Z,15.50
2023-04-18T16:01:45.220Z,15.50
2023-04-18T16:04:14.225Z,15.50
2023-04-18T16:06:42.631Z,15.50
2023-04-18T16:09:10.710Z,15.50
2023-04-18T16:11:38.593Z,15.50
2023-04-18T16:14:06.490Z,15.50
2023-04-18T16:16:34.792Z,15.50
2023-04-18T16:19:04.310Z,15.50
2023-04-18T16:21:32.548Z,15.50
2023-04-18T16:24:00.598Z,15.50
2023-04-18T16:26:28.901Z,15.50
2023-04-18T16:28:56.965Z,15.50
2023-04-18T16:31:24.964Z,15.50
2023-04-18T16:33:53.415Z,15.50
2023-04-18T16:36:22.668Z,15.50
2023-04-18T16:38:50.566Z,15.50
2023-04-18T16:41:18.514Z,15.50
2023-04-18T16:43:46.495Z,15.50
2023-04-18T16:46:14.710Z,15.50
2023-04-18T16:48:44.577Z,15.50
2023-04-18T16:51:13.125Z,15.50
2023-04-18T16:53:42.663Z,15.50
2023-04-18T16:56:10.584Z,15.50
2023-04-18T16:58:38.556Z,15.50
2023-04-18T17:01:08.057Z,15.50
2023-04-18T17:03:36.538Z,15.50
2023-04-18T17:06:05.782Z,15.50
2023-04-18T17:08:34.125Z,15.60
2023-04-18T17:11:03.557Z,15.50
2023-04-18T17:13:32.507Z,15.50
2023-04-18T17:16:00.617Z,15.60
2023-04-18T17:18:29.420Z,15.60
2023-04-18T17:20:58.131Z,15.60
2023-04-18T17:23:26.838Z,15.60
2023-04-18T17:25:54.763Z,15.60
2023-04-18T17:28:25.056Z,15.60
2023-04-18T17:30:53.199Z,15.60
2023-04-18T17:33:21.278Z,15.60
2023-04-18T17:35:50.303Z,15.60
2023-04-18T17:38:18.232Z,15.60
2023-04-18T17:40:46.113Z,15.60
2023-04-18T17:43:13.977Z,15.60
2023-04-18T17:45:44.047Z,15.60
2023-04-18T17:48:11.997Z,15.60
2023-04-18T17:50:41.756Z,15.60
2023-04-18T17:53:09.762Z,15.60
2023-04-18T17:55:37.639Z,15.60
2023-04-18T17:58:06.038Z,15.60
2023-04-18T18:00:33.947Z,15.60
2023-04-18T18:03:03.701Z,15.60
2023-04-18T18:05:31.850Z,15.70
2023-04-18T18:08:01.282Z,15.70
2023-04-18T18:10:29.917Z,15.70
2023-04-18T18:12:58.126Z,15.70
2023-04-18T18:15:26.627Z,15.70
2023-04-18T18:17:55.033Z,15.70
2023-04-18T18:20:24.913Z,15.70
2023-04-18T18:22:54.419Z,15.70
2023-04-18T18:25:22.534Z,15.70
2023-04-18T18:27:51.417Z,15.70
2023-04-18T18:30:20.293Z,15.70
2023-04-18T18:32:48.396Z,15.70
2023-04-18T18:35:16.406Z,15.70
2023-04-18T18:37:45.657Z,15.70
2023-04-18T18:40:14.102Z,15.70
2023-04-18T18:42:42.464Z,15.70
2023-04-18T18:45:11.247Z,15.70
2023-04-18T18:47:40.242Z,15.70
2023-04-18T18:50:09.102Z,15.70
2023-04-18T18:52:40.696Z,15.70
2023-04-18T18:55:11.124Z,15.70
2023-04-18T18:57:39.233Z,15.70
2023-04-18T19:00:10.745Z,15.70
2023-04-18T19:02:39.586Z,15.70
2023-04-18T19:05:08.794Z,15.70
2023-04-18T19:07:36.746Z,15.70
2023-04-18T19:10:05.681Z,15.70
2023-04-18T19:12:34.915Z,15.70
2023-04-18T19:15:02.909Z,15.70
2023-04-18T19:17:30.977Z,15.70
2023-04-18T19:20:01.150Z,15.70
2023-04-18T19:22:29.487Z,15.70
2023-04-18T19:24:58.379Z,15.80
2023-04-18T19:27:26.955Z,15.70
2023-04-18T19:29:56.916Z,15.80
2023-04-18T19:32:24.929Z,15.80
2023-04-18T19:34:53.023Z,15.80
2023-04-18T19:37:21.081Z,15.80
2023-04-18T19:39:49.097Z,15.80
2023-04-18T19:42:17.036Z,15.80
2023-04-18T19:44:45.207Z,15.80
2023-04-18T19:47:14.445Z,15.80
2023-04-18T19:49:42.527Z,15.80
2023-04-18T19:52:10.592Z,15.80
2023-04-18T19:54:38.475Z,15.80
2023-04-18T19:57:06.404Z,15.80
2023-04-18T19:59:34.324Z,15.80
2023-04-18T20:02:05.205Z,15.80
2023-04-18T20:04:36.530Z,15.80
2023-04-18T20:07:04.651Z,15.80
2023-04-18T20:09:32.540Z,15.80
2023-04-18T20:12:01.836Z,15.80
2023-04-18T20:14:30.340Z,15.80
2023-04-18T20:16:58.291Z,15.80
2023-04-18T20:19:26.913Z,15.80
2023-04-18T20:21:56.160Z,15.80
2023-04-18T20:24:27.891Z,15.80
2023-04-18T20:26:55.810Z,15.80
2023-04-18T20:29:23.663Z,15.80
2023-04-18T20:31:51.652Z,15.80
2023-04-18T20:34:19.558Z,15.80
2023-04-18T20:36:47.551Z,15.80
2023-04-18T20:39:17.143Z,15.80
2023-04-18T20:41:47.280Z,15.80
2023-04-18T20:44:16.550Z,15.80
2023-04-18T20:46:44.519Z,15.80
2023-04-18T20:49:12.622Z,15.80
2023-04-18T20:51:40.753Z,15.80
2023-04-18T20:54:08.649Z,15.80
2023-04-18T20:56:38.741Z,15.80
2023-04-18T20:59:06.791Z,15.80
2023-04-18T21:01:36.177Z,15.80
2023-04-18T21:04:05.285Z,15.80
2023-04-18T21:06:33.226Z,15.80
2023-04-18T21:09:01.126Z,15.80
2023-04-18T21:11:29.094Z,15.80
2023-04-18T21:13:58.290Z,15.80
2023-04-18T21:16:26.385Z,15.80
2023-04-18T21:18:54.957Z,15.80
2023-04-18T21:21:22.918Z,15.80
2023-04-18T21:23:50.851Z,15.80
2023-04-18T21:26:18.887Z,15.80
2023-04-18T21:28:59.070Z,15.80
2023-04-18T21:31:29.679Z,15.80
2023-04-18T21:33:59.713Z,15.80
2023-04-18T21:36:30.646Z,15.80
2023-04-18T21:39:01.665Z,15.80
2023-04-18T21:41:29.624Z,15.80
2023-04-18T21:43:58.919Z,15.80
2023-04-18T21:46:26.836Z,15.80
2023-04-18T21:48:54.824Z,15.80
2023-04-18T21:51:22.741Z,15.80
2023-04-18T21:53:50.696Z,15.80
2023-04-18T21:56:18.582Z,15.80
2023-04-18T21:58:46.662Z,15.80
2023-04-18T22:01:16.062Z,15.80
2023-04-18T22:03:44.239Z,15.80
2023-04-18T22:06:12.232Z,15.80
2023-04-18T22:08:42.008Z,15.80
2023-04-18T22:11:11.490Z,15.80
2023-04-18T22:13:39.362Z,15.80
2023-04-18T22:16:10.081Z,15.80
2023-04-18T22:18:39.290Z,15.80
2023-04-18T22:21:09.559Z,15.80
2023-04-18T22:23:37.382Z,15.80
2023-04-18T22:26:05.359Z,15.80
2023-04-18T22:28:33.892Z,15.80
2023-04-18T22:31:01.842Z,15.80
2023-04-18T22:33:29.807Z,15.80
2023-04-18T22:35:59.243Z,15.80
2023-04-18T22:38:27.097Z,15.80
2023-04-18T22:40:55.162Z,15.80
2023-04-18T22:43:24.309Z,15.80
2023-04-18T22:45:52.595Z,15.80
2023-04-18T22:48:20.962Z,15.80
2023-04-18T22:50:49.767Z,15.80
2023-04-18T22:53:19.132Z,15.80
2023-04-18T22:55:47.084Z,15.80
2023-04-18T22:58:15.097Z,15.80
2023-04-18T23:00:44.116Z,15.80
2023-04-18T23:03:12.322Z,15.80
2023-04-18T23:05:41.235Z,15.70
2023-04-18T23:08:09.455Z,15.80
2023-04-18T23:10:39.057Z,15.80
2023-04-18T23:13:06.919Z,15.80
2023-04-18T23:15:34.826Z,15.80
2023-04-18T23:18:02.810Z,15.80
2023-04-18T23:20:30.894Z,15.80
2023-04-18T23:22:59.382Z,15.80
2023-04-18T23:25:27.840Z,15.70
2023-04-18T23:27:57.098Z,15.80
2023-04-18T23:30:26.168Z,15.80
2023-04-18T23:32:54.140Z,15.80
2023-04-18T23:35:22.027Z,15.80
2023-04-18T23:37:50.182Z,15.80
2023-04-18T23:40:18.371Z,15.80
2023-04-18T23:42:47.281Z,15.80
2023-04-18T23:45:16.941Z,15.80
2023-04-18T23:47:44.896Z,15.80
2023-04-18T23:50:13.780Z,15.80
2023-04-18T23:52:41.870Z,15.80
2023-04-18T23:55:11.141Z,15.80
2023-04-18T23:57:39.161Z,15.80
